sensor_id;sensor_type;location;lat;lon;timestamp;pressure;altitude;pressure_sealevel;temperature;humidity
66486;BME280;53303;47.476;8.084;2023-03-19T00:00:33;95061.19;;;20.26;37.12
66486;BME280;53303;47.476;8.084;2023-03-19T00:03:01;95049.22;;;20.12;37.44
66486;BME280;53303;47.476;8.084;2023-03-19T00:05:28;95064.06;;;20.14;37.71
66486;BME280;53303;47.476;8.084;2023-03-19T00:07:57;95082.31;;;20.29;37.34
66486;BME280;53303;47.476;8.084;2023-03-19T00:10:22;95069.53;;;20.20;37.37
66486;BME280;53303;47.476;8.084;2023-03-19T00:12:50;95044.97;;;20.05;37.36
66486;BME280;53303;47.476;8.084;2023-03-19T00:15:18;95059.25;;;20.15;37.42
66486;BME280;53303;47.476;8.084;2023-03-19T00:17:46;95051.47;;;20.13;37.34
66486;BME280;53303;47.476;8.084;2023-03-19T00:20:14;95057.44;;;20.23;37.43
66486;BME280;53303;47.476;8.084;2023-03-19T00:22:39;95050.22;;;20.09;37.36
66486;BME280;53303;47.476;8.084;2023-03-19T00:25:06;95046.09;;;19.96;37.36
66486;BME280;53303;47.476;8.084;2023-03-19T00:27:32;95093.41;;;20.29;37.44
66486;BME280;53303;47.476;8.084;2023-03-19T00:29:57;95082.88;;;20.22;37.36
66486;BME280;53303;47.476;8.084;2023-03-19T00:32:26;95090.63;;;20.29;37.33
66486;BME280;53303;47.476;8.084;2023-03-19T00:34:54;95067.84;;;20.11;37.54
66486;BME280;53303;47.476;8.084;2023-03-19T00:37:19;95103.03;;;20.22;37.49
66486;BME280;53303;47.476;8.084;2023-03-19T00:39:44;95084.25;;;20.09;37.60
66486;BME280;53303;47.476;8.084;2023-03-19T00:42:10;95093.75;;;20.20;37.44
66486;BME280;53303;47.476;8.084;2023-03-19T00:44:37;95048.34;;;19.92;37.59
66486;BME280;53303;47.476;8.084;2023-03-19T00:47:05;95091.94;;;20.22;37.47
66486;BME280;53303;47.476;8.084;2023-03-19T00:49:31;95105.22;;;20.29;37.31
66486;BME280;53303;47.476;8.084;2023-03-19T00:51:59;95072.69;;;20.05;37.44
66486;BME280;53303;47.476;8.084;2023-03-19T00:54:27;95082.72;;;20.08;37.35
66486;BME280;53303;47.476;8.084;2023-03-19T00:56:54;95091.78;;;20.09;37.26
66486;BME280;53303;47.476;8.084;2023-03-19T00:59:20;95086.00;;;20.07;37.49
66486;BME280;53303;47.476;8.084;2023-03-19T01:01:45;95119.13;;;20.24;37.48
66486;BME280;53303;47.476;8.084;2023-03-19T01:04:13;95105.59;;;20.14;37.46
66486;BME280;53303;47.476;8.084;2023-03-19T01:06:39;95114.38;;;20.19;37.41
66486;BME280;53303;47.476;8.084;2023-03-19T01:09:04;95125.88;;;20.28;37.31
66486;BME280;53303;47.476;8.084;2023-03-19T01:11:34;95092.84;;;20.06;37.51
66486;BME280;53303;47.476;8.084;2023-03-19T01:14:00;95129.97;;;20.22;37.33
66486;BME280;53303;47.476;8.084;2023-03-19T01:16:27;95120.63;;;20.25;37.32
66486;BME280;53303;47.476;8.084;2023-03-19T01:18:55;95128.66;;;20.28;37.40
66486;BME280;53303;47.476;8.084;2023-03-19T01:21:21;95115.13;;;20.19;37.32
66486;BME280;53303;47.476;8.084;2023-03-19T01:23:46;95128.66;;;20.28;37.44
66486;BME280;53303;47.476;8.084;2023-03-19T01:26:12;95119.38;;;20.26;37.38
66486;BME280;53303;47.476;8.084;2023-03-19T01:28:39;95113.81;;;20.26;37.25
66486;BME280;53303;47.476;8.084;2023-03-19T01:31:07;95115.06;;;20.25;37.27
66486;BME280;53303;47.476;8.084;2023-03-19T01:33:33;95114.06;;;20.28;37.28
66486;BME280;53303;47.476;8.084;2023-03-19T01:36:01;95106.31;;;20.21;37.28
66486;BME280;53303;47.476;8.084;2023-03-19T01:38:28;95080.75;;;20.03;37.39
66486;BME280;53303;47.476;8.084;2023-03-19T01:40:54;95098.84;;;20.10;37.28
66486;BME280;53303;47.476;8.084;2023-03-19T01:43:22;95127.16;;;20.27;37.35
66486;BME280;53303;47.476;8.084;2023-03-19T01:48:50;95125.66;;;20.26;37.40
66486;BME280;53303;47.476;8.084;2023-03-19T01:51:20;95114.66;;;20.15;37.37
66486;BME280;53303;47.476;8.084;2023-03-19T01:53:52;95120.88;;;20.27;37.26
66486;BME280;53303;47.476;8.084;2023-03-19T01:56:22;95124.38;;;20.27;37.51
66486;BME280;53303;47.476;8.084;2023-03-19T01:58:55;95104.84;;;20.14;37.40
66486;BME280;53303;47.476;8.084;2023-03-19T02:01:21;95115.34;;;20.27;37.46
66486;BME280;53303;47.476;8.084;2023-03-19T02:03:51;95107.88;;;20.16;37.39
66486;BME280;53303;47.476;8.084;2023-03-19T02:06:22;95111.78;;;20.26;37.27
66486;BME280;53303;47.476;8.084;2023-03-19T02:08:48;95112.31;;;20.25;37.33
66486;BME280;53303;47.476;8.084;2023-03-19T02:11:15;95121.63;;;20.27;37.53
66486;BME280;53303;47.476;8.084;2023-03-19T02:13:42;95100.03;;;20.20;37.38
66486;BME280;53303;47.476;8.084;2023-03-19T02:16:07;95114.56;;;20.26;37.28
66486;BME280;53303;47.476;8.084;2023-03-19T02:18:36;95107.09;;;20.15;37.30
66486;BME280;53303;47.476;8.084;2023-03-19T02:21:05;95124.91;;;20.26;37.32
66486;BME280;53303;47.476;8.084;2023-03-19T02:23:54;95121.16;;;20.23;37.23
66486;BME280;53303;47.476;8.084;2023-03-19T02:26:26;95111.84;;;20.21;37.30
66486;BME280;53303;47.476;8.084;2023-03-19T02:28:53;95098.84;;;20.10;37.41
66486;BME280;53303;47.476;8.084;2023-03-19T02:31:19;95120.09;;;20.26;37.63
66486;BME280;53303;47.476;8.084;2023-03-19T02:36:36;95100.63;;;20.07;37.14
66486;BME280;53303;47.476;8.084;2023-03-19T02:39:05;95117.38;;;20.21;37.24
66486;BME280;53303;47.476;8.084;2023-03-19T02:41:38;95116.13;;;20.22;37.27
66486;BME280;53303;47.476;8.084;2023-03-19T02:44:07;95120.63;;;20.25;37.30
66486;BME280;53303;47.476;8.084;2023-03-19T02:46:35;95094.84;;;20.05;37.26
66486;BME280;53303;47.476;8.084;2023-03-19T02:49:05;95101.41;;;20.02;37.37
66486;BME280;53303;47.476;8.084;2023-03-19T02:51:30;95076.06;;;19.92;37.53
66486;BME280;53303;47.476;8.084;2023-03-19T02:53:59;95104.09;;;20.13;36.92
66486;BME280;53303;47.476;8.084;2023-03-19T02:56:26;95106.16;;;20.07;37.15
66486;BME280;53303;47.476;8.084;2023-03-19T02:58:54;95116.13;;;20.22;37.17
66486;BME280;53303;47.476;8.084;2023-03-19T03:01:21;95121.91;;;20.24;37.23
66486;BME280;53303;47.476;8.084;2023-03-19T03:03:47;95108.16;;;20.12;36.94
66486;BME280;53303;47.476;8.084;2023-03-19T03:06:12;95110.91;;;20.12;37.44
66486;BME280;53303;47.476;8.084;2023-03-19T03:08:38;95093.06;;;20.08;37.22
66486;BME280;53303;47.476;8.084;2023-03-19T03:11:04;95109.59;;;20.19;37.17
66486;BME280;53303;47.476;8.084;2023-03-19T03:13:32;95098.38;;;20.06;37.36
66486;BME280;53303;47.476;8.084;2023-03-19T03:15:57;95110.44;;;20.08;37.36
66486;BME280;53303;47.476;8.084;2023-03-19T03:18:26;95119.69;;;20.16;37.31
66486;BME280;53303;47.476;8.084;2023-03-19T03:20:54;95105.38;;;20.12;37.10
66486;BME280;53303;47.476;8.084;2023-03-19T03:23:22;95117.44;;;20.15;37.05
66486;BME280;53303;47.476;8.084;2023-03-19T03:25:52;95098.38;;;20.06;36.98
66486;BME280;53303;47.476;8.084;2023-03-19T03:28:18;95116.97;;;20.11;37.00
66486;BME280;53303;47.476;8.084;2023-03-19T03:30:48;95112.19;;;20.11;37.14
66486;BME280;53303;47.476;8.084;2023-03-19T03:33:16;95115.97;;;20.08;37.31
66486;BME280;53303;47.476;8.084;2023-03-19T03:35:46;95119.47;;;20.14;37.27
66486;BME280;53303;47.476;8.084;2023-03-19T03:38:14;95119.75;;;20.11;37.22
66486;BME280;53303;47.476;8.084;2023-03-19T03:40:39;95139.03;;;20.22;36.99
66486;BME280;53303;47.476;8.084;2023-03-19T03:43:05;95119.53;;;20.03;36.91
66486;BME280;53303;47.476;8.084;2023-03-19T03:45:33;95149.59;;;20.24;36.88
66486;BME280;53303;47.476;8.084;2023-03-19T03:48:01;95152.88;;;20.22;36.92
66486;BME280;53303;47.476;8.084;2023-03-19T03:50:29;95132.13;;;20.04;36.80
66486;BME280;53303;47.476;8.084;2023-03-19T03:52:55;95099.53;;;19.80;36.85
66486;BME280;53303;47.476;8.084;2023-03-19T03:55:20;95145.47;;;20.06;36.96
66486;BME280;53303;47.476;8.084;2023-03-19T03:57:45;95159.72;;;20.15;37.06
66486;BME280;53303;47.476;8.084;2023-03-19T04:00:14;95141.69;;;20.03;37.12
66486;BME280;53303;47.476;8.084;2023-03-19T04:02:42;95158.97;;;20.15;37.14
66486;BME280;53303;47.476;8.084;2023-03-19T04:05:09;95159.16;;;20.23;37.13
66486;BME280;53303;47.476;8.084;2023-03-19T04:07:36;95163.97;;;20.22;36.98
66486;BME280;53303;47.476;8.084;2023-03-19T04:10:04;95152.16;;;20.22;37.04
66486;BME280;53303;47.476;8.084;2023-03-19T04:12:32;95158.44;;;20.22;37.07
66486;BME280;53303;47.476;8.084;2023-03-19T04:15:05;95116.59;;;19.90;37.18
66486;BME280;53303;47.476;8.084;2023-03-19T04:17:31;95170.03;;;20.21;37.10
66486;BME280;53303;47.476;8.084;2023-03-19T04:20:00;95146.47;;;20.03;37.27
66486;BME280;53303;47.476;8.084;2023-03-19T04:22:30;95162.44;;;20.21;37.20
66486;BME280;53303;47.476;8.084;2023-03-19T04:24:56;95139.41;;;20.02;37.03
66486;BME280;53303;47.476;8.084;2023-03-19T04:27:22;95164.47;;;20.21;37.08
66486;BME280;53303;47.476;8.084;2023-03-19T04:29:50;95140.91;;;20.08;37.15
66486;BME280;53303;47.476;8.084;2023-03-19T04:32:15;95137.19;;;20.00;36.98
66486;BME280;53303;47.476;8.084;2023-03-19T04:34:43;95146.16;;;20.12;37.06
66486;BME280;53303;47.476;8.084;2023-03-19T04:37:11;95146.44;;;20.08;37.20
66486;BME280;53303;47.476;8.084;2023-03-19T04:39:37;95166.50;;;20.20;37.22
66486;BME280;53303;47.476;8.084;2023-03-19T04:42:05;95150.72;;;20.09;37.23
66486;BME280;53303;47.476;8.084;2023-03-19T04:44:32;95172.78;;;20.21;37.10
66486;BME280;53303;47.476;8.084;2023-03-19T04:46:58;95181.09;;;20.21;37.16
66486;BME280;53303;47.476;8.084;2023-03-19T04:49:23;95183.88;;;20.21;37.03
66486;BME280;53303;47.476;8.084;2023-03-19T04:51:52;95179.06;;;20.21;37.09
66486;BME280;53303;47.476;8.084;2023-03-19T04:54:20;95178.34;;;20.21;37.11
66486;BME280;53303;47.476;8.084;2023-03-19T04:56:45;95175.66;;;20.09;37.45
66486;BME280;53303;47.476;8.084;2023-03-19T04:59:13;95158.81;;;20.02;37.11
66486;BME280;53303;47.476;8.084;2023-03-19T05:01:38;95156.81;;;20.02;37.24
66486;BME280;53303;47.476;8.084;2023-03-19T05:04:04;95169.34;;;20.09;37.09
66486;BME280;53303;47.476;8.084;2023-03-19T05:06:35;95181.38;;;20.17;37.12
66486;BME280;53303;47.476;8.084;2023-03-19T05:09:02;95181.84;;;20.21;37.08
66486;BME280;53303;47.476;8.084;2023-03-19T05:11:31;95119.69;;;19.81;37.18
66486;BME280;53303;47.476;8.084;2023-03-19T05:13:56;95175.56;;;20.21;37.13
66486;BME280;53303;47.476;8.084;2023-03-19T05:16:24;95152.56;;;19.95;37.13
66486;BME280;53303;47.476;8.084;2023-03-19T05:18:52;95169.59;;;20.11;37.02
66486;BME280;53303;47.476;8.084;2023-03-19T05:21:17;95182.63;;;20.22;37.20
66486;BME280;53303;47.476;8.084;2023-03-19T05:23:42;95174.63;;;20.12;37.13
66486;BME280;53303;47.476;8.084;2023-03-19T05:26:10;95155.53;;;20.03;37.33
66486;BME280;53303;47.476;8.084;2023-03-19T05:28:38;95141.03;;;19.91;37.02
66486;BME280;53303;47.476;8.084;2023-03-19T05:31:04;95147.78;;;19.96;37.06
66486;BME280;53303;47.476;8.084;2023-03-19T05:33:29;95151.00;;;20.06;37.04
66486;BME280;53303;47.476;8.084;2023-03-19T05:35:57;95175.56;;;20.21;37.21
66486;BME280;53303;47.476;8.084;2023-03-19T05:38:23;95162.03;;;20.11;37.21
66486;BME280;53303;47.476;8.084;2023-03-19T05:40:50;95177.81;;;20.22;37.10
66486;BME280;53303;47.476;8.084;2023-03-19T05:43:16;95158.78;;;20.07;37.12
66486;BME280;53303;47.476;8.084;2023-03-19T05:45:41;95148.00;;;20.04;37.11
66486;BME280;53303;47.476;8.084;2023-03-19T05:48:08;95169.31;;;20.14;37.27
66486;BME280;53303;47.476;8.084;2023-03-19T05:50:36;95176.31;;;20.21;37.20
66486;BME280;53303;47.476;8.084;2023-03-19T05:53:01;95186.13;;;20.22;37.10
66486;BME280;53303;47.476;8.084;2023-03-19T05:55:35;95188.91;;;20.22;37.16
66486;BME280;53303;47.476;8.084;2023-03-19T05:58:00;95189.66;;;20.23;37.14
66486;BME280;53303;47.476;8.084;2023-03-19T06:00:26;95166.09;;;20.05;37.21
66486;BME280;53303;47.476;8.084;2023-03-19T06:02:51;95172.38;;;20.11;37.07
66486;BME280;53303;47.476;8.084;2023-03-19T06:05:19;95185.16;;;20.20;37.32
66486;BME280;53303;47.476;8.084;2023-03-19T06:07:46;95162.34;;;20.02;37.30
66486;BME280;53303;47.476;8.084;2023-03-19T06:10:14;95165.59;;;20.06;37.09
66486;BME280;53303;47.476;8.084;2023-03-19T06:12:39;95199.47;;;20.24;37.16
66486;BME280;53303;47.476;8.084;2023-03-19T06:15:07;95164.59;;;20.04;37.13
66486;BME280;53303;47.476;8.084;2023-03-19T06:17:33;95182.66;;;20.16;37.33
66486;BME280;53303;47.476;8.084;2023-03-19T06:19:59;95176.91;;;20.08;37.16
66486;BME280;53303;47.476;8.084;2023-03-19T06:22:25;95193.19;;;20.23;37.27
66486;BME280;53303;47.476;8.084;2023-03-19T06:24:51;95180.94;;;20.07;37.16
66486;BME280;53303;47.476;8.084;2023-03-19T06:27:16;95184.94;;;20.12;37.08
66486;BME280;53303;47.476;8.084;2023-03-19T06:29:44;95183.72;;;20.07;37.02
66486;BME280;53303;47.476;8.084;2023-03-19T06:32:09;95205.28;;;20.20;37.13
66486;BME280;53303;47.476;8.084;2023-03-19T06:34:35;95153.66;;;19.81;37.00
66486;BME280;53303;47.476;8.084;2023-03-19T06:37:03;95199.28;;;20.16;37.13
66486;BME280;53303;47.476;8.084;2023-03-19T06:39:32;95191.75;;;20.11;37.14
66486;BME280;53303;47.476;8.084;2023-03-19T06:42:02;95209.31;;;20.19;37.11
66486;BME280;53303;47.476;8.084;2023-03-19T06:44:27;95193.25;;;20.12;37.19
66486;BME280;53303;47.476;8.084;2023-03-19T06:46:53;95196.53;;;20.10;37.19
66486;BME280;53303;47.476;8.084;2023-03-19T06:49:20;95184.47;;;20.08;37.40
66486;BME280;53303;47.476;8.084;2023-03-19T06:51:46;95173.47;;;19.96;37.00
66486;BME280;53303;47.476;8.084;2023-03-19T06:54:11;95206.53;;;20.19;36.87
66486;BME280;53303;47.476;8.084;2023-03-19T06:56:37;95201.56;;;20.12;37.07
66486;BME280;53303;47.476;8.084;2023-03-19T06:59:02;95192.03;;;20.07;37.12
66486;BME280;53303;47.476;8.084;2023-03-19T07:01:27;95203.06;;;20.13;37.12
66486;BME280;53303;47.476;8.084;2023-03-19T07:03:53;95218.88;;;20.24;37.08
66486;BME280;53303;47.476;8.084;2023-03-19T07:06:21;95200.81;;;20.11;37.02
66486;BME280;53303;47.476;8.084;2023-03-19T07:08:47;95215.91;;;20.10;36.96
66486;BME280;53303;47.476;8.084;2023-03-19T07:11:15;95202.34;;;20.07;37.14
66486;BME280;53303;47.476;8.084;2023-03-19T07:13:41;95211.66;;;20.09;36.91
66486;BME280;53303;47.476;8.084;2023-03-19T07:16:07;95228.19;;;20.21;36.73
66486;BME280;53303;47.476;8.084;2023-03-19T07:18:35;95225.47;;;20.15;36.80
66486;BME280;53303;47.476;8.084;2023-03-19T07:21:00;95214.47;;;20.04;37.04
66486;BME280;53303;47.476;8.084;2023-03-19T07:23:28;95221.72;;;20.12;36.93
66486;BME280;53303;47.476;8.084;2023-03-19T07:25:54;95236.50;;;20.21;37.02
66486;BME280;53303;47.476;8.084;2023-03-19T07:28:22;95207.91;;;20.01;36.92
66486;BME280;53303;47.476;8.084;2023-03-19T07:30:49;95230.50;;;20.16;36.92
66486;BME280;53303;47.476;8.084;2023-03-19T07:33:15;95205.88;;;20.02;36.69
66486;BME280;53303;47.476;8.084;2023-03-19T07:35:40;95215.22;;;20.04;36.84
66486;BME280;53303;47.476;8.084;2023-03-19T07:38:06;95232.03;;;20.12;36.65
66486;BME280;53303;47.476;8.084;2023-03-19T07:40:31;95235.81;;;20.14;36.76
66486;BME280;53303;47.476;8.084;2023-03-19T07:42:56;95250.31;;;20.26;36.64
66486;BME280;53303;47.476;8.084;2023-03-19T07:45:24;95235.81;;;20.14;36.50
66486;BME280;53303;47.476;8.084;2023-03-19T07:47:50;95235.28;;;20.16;36.95
66486;BME280;53303;47.476;8.084;2023-03-19T07:50:18;95222.00;;;20.03;37.19
66486;BME280;53303;47.476;8.084;2023-03-19T07:52:47;95243.34;;;20.20;37.03
66486;BME280;53303;47.476;8.084;2023-03-19T07:55:13;95221.25;;;20.03;37.08
66486;BME280;53303;47.476;8.084;2023-03-19T07:57:39;95258.63;;;20.26;37.03
66486;BME280;53303;47.476;8.084;2023-03-19T08:00:05;95246.63;;;20.18;36.96
66486;BME280;53303;47.476;8.084;2023-03-19T08:02:34;95263.44;;;20.26;37.20
66486;BME280;53303;47.476;8.084;2023-03-19T08:05:02;95236.59;;;20.09;37.27
66486;BME280;53303;47.476;8.084;2023-03-19T08:07:32;95256.13;;;20.23;37.40
66486;BME280;53303;47.476;8.084;2023-03-19T08:09:57;95250.59;;;20.23;37.21
66486;BME280;53303;47.476;8.084;2023-03-19T08:12:23;95230.53;;;20.11;37.27
66486;BME280;53303;47.476;8.084;2023-03-19T08:14:49;95238.56;;;20.14;37.15
66486;BME280;53303;47.476;8.084;2023-03-19T08:17:20;95256.66;;;20.21;37.24
66486;BME280;53303;47.476;8.084;2023-03-19T08:19:49;95222.00;;;20.03;37.32
66486;BME280;53303;47.476;8.084;2023-03-19T08:22:16;95224.25;;;20.05;37.26
66486;BME280;53303;47.476;8.084;2023-03-19T08:24:44;95238.59;;;20.09;37.16
66486;BME280;53303;47.476;8.084;2023-03-19T08:27:09;95255.44;;;20.16;37.29
66486;BME280;53303;47.476;8.084;2023-03-19T08:29:42;95245.38;;;20.13;37.38
66486;BME280;53303;47.476;8.084;2023-03-19T08:32:07;95246.88;;;20.14;37.41
66486;BME280;53303;47.476;8.084;2023-03-19T08:34:33;95263.44;;;20.26;37.33
66486;BME280;53303;47.476;8.084;2023-03-19T08:37:00;95263.66;;;20.28;37.15
66486;BME280;53303;47.476;8.084;2023-03-19T08:39:26;95260.44;;;20.24;36.95
66486;BME280;53303;47.476;8.084;2023-03-19T08:41:51;95243.88;;;20.12;37.18
66486;BME280;53303;47.476;8.084;2023-03-19T08:44:17;95242.34;;;20.11;37.33
66486;BME280;53303;47.476;8.084;2023-03-19T08:46:42;95234.34;;;20.02;37.08
66486;BME280;53303;47.476;8.084;2023-03-19T08:49:08;95250.13;;;20.19;37.42
66486;BME280;53303;47.476;8.084;2023-03-19T08:51:35;95229.31;;;20.01;37.20
66486;BME280;53303;47.476;8.084;2023-03-19T08:54:01;95244.38;;;20.11;37.38
66486;BME280;53303;47.476;8.084;2023-03-19T08:56:26;95247.38;;;20.13;37.25
66486;BME280;53303;47.476;8.084;2023-03-19T08:58:55;95270.72;;;20.29;37.13
66486;BME280;53303;47.476;8.084;2023-03-19T09:01:21;95257.19;;;20.20;37.28
66486;BME280;53303;47.476;8.084;2023-03-19T09:03:46;95246.66;;;20.12;37.31
66486;BME280;53303;47.476;8.084;2023-03-19T09:06:12;95272.25;;;20.24;37.15
66486;BME280;53303;47.476;8.084;2023-03-19T09:08:38;95278.75;;;20.32;37.06
66486;BME280;53303;47.476;8.084;2023-03-19T09:11:07;95275.00;;;20.30;36.91
66486;BME280;53303;47.476;8.084;2023-03-19T09:13:33;95273.97;;;20.33;37.13
66486;BME280;53303;47.476;8.084;2023-03-19T09:15:58;95257.69;;;20.18;37.16
66486;BME280;53303;47.476;8.084;2023-03-19T09:18:24;95265.97;;;20.24;37.10
66486;BME280;53303;47.476;8.084;2023-03-19T09:20:50;95274.00;;;20.27;36.99
66486;BME280;53303;47.476;8.084;2023-03-19T09:23:16;95281.78;;;20.34;37.16
66486;BME280;53303;47.476;8.084;2023-03-19T09:25:42;95269.22;;;20.28;37.32
66486;BME280;53303;47.476;8.084;2023-03-19T09:28:07;95267.22;;;20.23;36.71
66486;BME280;53303;47.476;8.084;2023-03-19T09:30:33;95280.53;;;20.30;37.12
66486;BME280;53303;47.476;8.084;2023-03-19T09:32:58;95282.28;;;20.33;36.98
66486;BME280;53303;47.476;8.084;2023-03-19T09:35:24;95278.75;;;20.32;37.04
66486;BME280;53303;47.476;8.084;2023-03-19T09:37:59;95270.22;;;20.30;37.08
66486;BME280;53303;47.476;8.084;2023-03-19T09:40:42;95268.69;;;20.29;36.95
66486;BME280;53303;47.476;8.084;2023-03-19T09:45:56;95261.16;;;20.24;37.13
66486;BME280;53303;47.476;8.084;2023-03-19T09:48:42;95264.41;;;20.34;37.13
66486;BME280;53303;47.476;8.084;2023-03-19T09:51:27;95260.13;;;20.33;37.15
66486;BME280;53303;47.476;8.084;2023-03-19T09:53:57;95236.81;;;20.11;37.10
66486;BME280;53303;47.476;8.084;2023-03-19T09:56:27;95241.81;;;20.19;37.04
66486;BME280;53303;47.476;8.084;2023-03-19T09:58:55;95258.13;;;20.28;37.00
66486;BME280;53303;47.476;8.084;2023-03-19T10:01:34;95268.38;;;20.39;37.00
66486;BME280;53303;47.476;8.084;2023-03-19T10:04:44;95261.34;;;20.38;36.98
66486;BME280;53303;47.476;8.084;2023-03-19T10:07:11;95242.56;;;20.19;36.89
66486;BME280;53303;47.476;8.084;2023-03-19T10:12:46;95247.50;;;20.38;36.98
66486;BME280;53303;47.476;8.084;2023-03-19T10:15:31;95256.31;;;20.36;37.03
66486;BME280;53303;47.476;8.084;2023-03-19T10:18:05;95253.06;;;20.32;36.99
66486;BME280;53303;47.476;8.084;2023-03-19T10:25:55;95257.53;;;20.41;37.02
66486;BME280;53303;47.476;8.084;2023-03-19T10:28:26;95260.31;;;20.41;37.02
66486;BME280;53303;47.476;8.084;2023-03-19T10:33:44;95254.78;;;20.41;36.99
66486;BME280;53303;47.476;8.084;2023-03-19T10:36:19;95253.28;;;20.40;37.20
66486;BME280;53303;47.476;8.084;2023-03-19T10:38:46;95236.97;;;20.30;37.06
66486;BME280;53303;47.476;8.084;2023-03-19T10:44:02;95229.63;;;20.33;37.03
66486;BME280;53303;47.476;8.084;2023-03-19T10:46:37;95206.53;;;20.19;36.94
66486;BME280;53303;47.476;8.084;2023-03-19T10:49:10;95220.34;;;20.30;36.86
66486;BME280;53303;47.476;8.084;2023-03-19T10:51:36;95228.84;;;20.38;37.14
66486;BME280;53303;47.476;8.084;2023-03-19T10:54:21;95248.66;;;20.48;37.04
66486;BME280;53303;47.476;8.084;2023-03-19T10:56:50;95250.19;;;20.49;36.88
66486;BME280;53303;47.476;8.084;2023-03-19T11:01:55;95236.84;;;20.47;37.01
66486;BME280;53303;47.476;8.084;2023-03-19T11:04:23;95246.22;;;20.39;37.03
66486;BME280;53303;47.476;8.084;2023-03-19T11:07:01;95228.38;;;20.34;36.92
66486;BME280;53303;47.476;8.084;2023-03-19T11:09:34;95246.91;;;20.50;36.97
66486;BME280;53303;47.476;8.084;2023-03-19T11:12:13;95251.16;;;20.51;36.97
66486;BME280;53303;47.476;8.084;2023-03-19T11:14:45;95220.31;;;20.36;36.98
66486;BME280;53303;47.476;8.084;2023-03-19T11:19:56;95203.31;;;20.15;37.05
66486;BME280;53303;47.476;8.084;2023-03-19T11:22:30;95215.03;;;20.32;37.00
66486;BME280;53303;47.476;8.084;2023-03-19T11:28:10;95243.91;;;20.48;36.96
66486;BME280;53303;47.476;8.084;2023-03-19T11:30:46;95247.13;;;20.52;36.83
66486;BME280;53303;47.476;8.084;2023-03-19T11:46:52;95236.56;;;20.51;36.80
66486;BME280;53303;47.476;8.084;2023-03-19T11:49:51;95228.06;;;20.43;36.99
66486;BME280;53303;47.476;8.084;2023-03-19T12:00:46;95222.53;;;20.43;36.99
66486;BME280;53303;47.476;8.084;2023-03-19T12:06:23;95217.75;;;20.38;36.81
66486;BME280;53303;47.476;8.084;2023-03-19T12:09:00;95225.19;;;20.54;36.95
66486;BME280;53303;47.476;8.084;2023-03-19T12:12:21;95234.81;;;20.48;37.12
66486;BME280;53303;47.476;8.084;2023-03-19T12:28:34;95227.75;;;20.52;37.09
66486;BME280;53303;47.476;8.084;2023-03-19T12:42:34;95227.00;;;20.52;37.02
66486;BME280;53303;47.476;8.084;2023-03-19T12:45:02;95211.91;;;20.47;36.93
66486;BME280;53303;47.476;8.084;2023-03-19T12:47:34;95208.44;;;20.41;37.02
66486;BME280;53303;47.476;8.084;2023-03-19T12:50:08;95173.09;;;20.11;37.01
66486;BME280;53303;47.476;8.084;2023-03-19T12:52:40;95226.47;;;20.53;37.04
66486;BME280;53303;47.476;8.084;2023-03-19T13:00:27;95219.66;;;20.54;37.07
66486;BME280;53303;47.476;8.084;2023-03-19T13:03:05;95199.59;;;20.43;37.07
66486;BME280;53303;47.476;8.084;2023-03-19T13:05:40;95195.31;;;20.42;37.14
66486;BME280;53303;47.476;8.084;2023-03-19T13:10:41;95196.09;;;20.37;36.96
66486;BME280;53303;47.476;8.084;2023-03-19T13:15:50;95218.69;;;20.52;36.73
66486;BME280;53303;47.476;8.084;2023-03-19T13:18:46;95221.44;;;20.52;37.19
66486;BME280;53303;47.476;8.084;2023-03-19T13:21:22;95222.44;;;20.54;37.04
66486;BME280;53303;47.476;8.084;2023-03-19T13:24:17;95201.41;;;20.34;37.10
66486;BME280;53303;47.476;8.084;2023-03-19T13:26:46;95206.63;;;20.44;37.23
66486;BME280;53303;47.476;8.084;2023-03-19T13:29:24;95212.84;;;20.56;37.00
66486;BME280;53303;47.476;8.084;2023-03-19T13:31:58;95216.38;;;20.56;37.02
66486;BME280;53303;47.476;8.084;2023-03-19T13:34:26;95219.38;;;20.58;37.27
66486;BME280;53303;47.476;8.084;2023-03-19T13:37:34;95205.84;;;20.49;37.05
66486;BME280;53303;47.476;8.084;2023-03-19T13:39:55;95197.06;;;20.45;36.94
66486;BME280;53303;47.476;8.084;2023-03-19T13:42:39;95211.06;;;20.58;37.08
66486;BME280;53303;47.476;8.084;2023-03-19T13:47:57;95225.16;;;20.60;36.88
66486;BME280;53303;47.476;8.084;2023-03-19T13:50:31;95225.16;;;20.60;37.22
66486;BME280;53303;47.476;8.084;2023-03-19T13:53:31;95206.34;;;20.47;37.06
66486;BME280;53303;47.476;8.084;2023-03-19T13:55:58;95223.94;;;20.56;36.88
66486;BME280;53303;47.476;8.084;2023-03-19T13:58:26;95224.19;;;20.58;37.18
66486;BME280;53303;47.476;8.084;2023-03-19T14:01:34;95230.00;;;20.54;37.29
66486;BME280;53303;47.476;8.084;2023-03-19T14:04:12;95238.03;;;20.58;37.32
66486;BME280;53303;47.476;8.084;2023-03-19T14:06:45;95222.25;;;20.47;37.19
66486;BME280;53303;47.476;8.084;2023-03-19T14:09:36;95234.25;;;20.55;37.20
66486;BME280;53303;47.476;8.084;2023-03-19T14:17:44;95229.72;;;20.58;37.07
66486;BME280;53303;47.476;8.084;2023-03-19T14:25:22;95220.22;;;20.47;37.04
66486;BME280;53303;47.476;8.084;2023-03-19T14:27:53;95229.72;;;20.58;37.29
66486;BME280;53303;47.476;8.084;2023-03-19T14:32:51;95216.38;;;20.56;37.11
66486;BME280;53303;47.476;8.084;2023-03-19T14:35:23;95215.13;;;20.57;37.04
66486;BME280;53303;47.476;8.084;2023-03-19T14:37:53;95218.41;;;20.56;36.96
66486;BME280;53303;47.476;8.084;2023-03-19T14:40:42;95220.66;;;20.57;37.26
66486;BME280;53303;47.476;8.084;2023-03-19T14:46:02;95227.78;;;20.47;37.35
66486;BME280;53303;47.476;8.084;2023-03-19T14:53:42;95214.91;;;20.49;37.18
66486;BME280;53303;47.476;8.084;2023-03-19T14:56:15;95222.88;;;20.59;37.16
66486;BME280;53303;47.476;8.084;2023-03-19T14:58:52;95222.94;;;20.53;37.19
66486;BME280;53303;47.476;8.084;2023-03-19T15:01:18;95218.19;;;20.48;37.24
66486;BME280;53303;47.476;8.084;2023-03-19T15:03:53;95228.44;;;20.59;37.25
66486;BME280;53303;47.476;8.084;2023-03-19T15:06:21;95227.97;;;20.54;37.28